Abraham, West Virginia
Current Conditions -  °F | °C
As of 9:51 AM on Thursday 18 Dec 2014 (Local Time) from KBKW Reporting Station
Overcast Overcast  
Wind Chill: 22°   Ceiling: 1400
Heat Index: 27°   Visibility: 10mi
Dew Point: 20°   Wind: 5mph
Humidity: 75%   Direction: NA
Pressure: 30.16"   Gusts: NA
Location:  37.6906°N, 81.1704°W
Report Text: KBKW 181451Z AUTO VRB04KT 10SM OVC014 M03/M07 A3016 RMK AO2 SLP247 T10281067 53007
Loading
Personal Weather Stations






























Interactive Weather Map New forecast layout! Learn more

10-Day Weather Forecast

Advertisements
Track Severe Weather on mobile